sensor_id;sensor_type;location;lat;lon;timestamp;P1;durP1;ratioP1;P2;durP2;ratioP2
57828;SDS011;43657;52.698;6.314;2023-07-13T00:00:16;15.40;;;4.55;;
57828;SDS011;43657;52.698;6.314;2023-07-13T00:02:51;10.43;;;4.75;;
57828;SDS011;43657;52.698;6.314;2023-07-13T00:05:21;14.90;;;4.82;;
57828;SDS011;43657;52.698;6.314;2023-07-13T00:07:51;13.85;;;4.70;;
57828;SDS011;43657;52.698;6.314;2023-07-13T00:10:23;12.07;;;4.37;;
57828;SDS011;43657;52.698;6.314;2023-07-13T00:12:53;11.90;;;4.18;;
57828;SDS011;43657;52.698;6.314;2023-07-13T00:15:28;13.48;;;5.05;;
57828;SDS011;43657;52.698;6.314;2023-07-13T00:17:57;13.10;;;5.00;;
57828;SDS011;43657;52.698;6.314;2023-07-13T00:20:31;11.98;;;4.57;;
57828;SDS011;43657;52.698;6.314;2023-07-13T00:23:06;9.57;;;4.40;;
57828;SDS011;43657;52.698;6.314;2023-07-13T00:25:41;13.25;;;4.07;;
57828;SDS011;43657;52.698;6.314;2023-07-13T00:28:13;9.77;;;4.17;;
57828;SDS011;43657;52.698;6.314;2023-07-13T00:30:39;13.43;;;4.57;;
57828;SDS011;43657;52.698;6.314;2023-07-13T00:33:09;9.32;;;4.03;;
57828;SDS011;43657;52.698;6.314;2023-07-13T00:35:41;9.80;;;4.00;;
57828;SDS011;43657;52.698;6.314;2023-07-13T00:38:12;12.52;;;4.45;;
57828;SDS011;43657;52.698;6.314;2023-07-13T00:40:40;10.35;;;4.07;;
57828;SDS011;43657;52.698;6.314;2023-07-13T00:43:15;13.52;;;4.55;;
57828;SDS011;43657;52.698;6.314;2023-07-13T00:48:16;13.43;;;4.82;;
57828;SDS011;43657;52.698;6.314;2023-07-13T00:50:53;12.07;;;4.65;;
57828;SDS011;43657;52.698;6.314;2023-07-13T00:53:31;10.73;;;4.60;;
57828;SDS011;43657;52.698;6.314;2023-07-13T00:55:59;15.38;;;4.68;;
57828;SDS011;43657;52.698;6.314;2023-07-13T00:58:32;7.45;;;4.13;;
57828;SDS011;43657;52.698;6.314;2023-07-13T01:01:01;10.20;;;4.47;;
57828;SDS011;43657;52.698;6.314;2023-07-13T01:03:37;9.40;;;4.60;;
57828;SDS011;43657;52.698;6.314;2023-07-13T01:06:06;11.30;;;4.78;;
57828;SDS011;43657;52.698;6.314;2023-07-13T01:08:35;12.52;;;5.00;;
57828;SDS011;43657;52.698;6.314;2023-07-13T01:11:02;11.07;;;5.13;;
57828;SDS011;43657;52.698;6.314;2023-07-13T01:13:31;12.50;;;4.70;;
57828;SDS011;43657;52.698;6.314;2023-07-13T01:16:01;13.75;;;5.90;;
57828;SDS011;43657;52.698;6.314;2023-07-13T01:18:37;12.18;;;4.93;;
57828;SDS011;43657;52.698;6.314;2023-07-13T01:21:07;13.43;;;4.88;;
57828;SDS011;43657;52.698;6.314;2023-07-13T01:23:39;14.90;;;5.43;;
57828;SDS011;43657;52.698;6.314;2023-07-13T01:26:11;14.77;;;5.55;;
57828;SDS011;43657;52.698;6.314;2023-07-13T01:28:43;13.68;;;5.57;;
57828;SDS011;43657;52.698;6.314;2023-07-13T01:31:16;13.43;;;4.95;;
57828;SDS011;43657;52.698;6.314;2023-07-13T01:33:42;12.35;;;5.30;;
57828;SDS011;43657;52.698;6.314;2023-07-13T01:36:16;13.60;;;5.72;;
57828;SDS011;43657;52.698;6.314;2023-07-13T01:38:48;11.73;;;4.90;;
57828;SDS011;43657;52.698;6.314;2023-07-13T01:41:14;13.65;;;5.40;;
57828;SDS011;43657;52.698;6.314;2023-07-13T01:43:40;11.18;;;4.85;;
57828;SDS011;43657;52.698;6.314;2023-07-13T01:46:09;13.52;;;5.22;;
57828;SDS011;43657;52.698;6.314;2023-07-13T01:48:35;13.43;;;5.55;;
57828;SDS011;43657;52.698;6.314;2023-07-13T01:51:01;13.43;;;5.10;;
57828;SDS011;43657;52.698;6.314;2023-07-13T01:53:27;14.25;;;5.25;;
57828;SDS011;43657;52.698;6.314;2023-07-13T01:55:53;14.50;;;6.00;;
57828;SDS011;43657;52.698;6.314;2023-07-13T01:58:20;12.05;;;5.50;;
57828;SDS011;43657;52.698;6.314;2023-07-13T02:00:51;13.48;;;5.40;;
57828;SDS011;43657;52.698;6.314;2023-07-13T02:03:20;17.85;;;5.63;;
57828;SDS011;43657;52.698;6.314;2023-07-13T02:05:52;14.02;;;5.22;;
57828;SDS011;43657;52.698;6.314;2023-07-13T02:08:22;15.45;;;5.40;;
57828;SDS011;43657;52.698;6.314;2023-07-13T02:10:48;14.45;;;5.57;;
57828;SDS011;43657;52.698;6.314;2023-07-13T02:13:21;12.02;;;5.45;;
57828;SDS011;43657;52.698;6.314;2023-07-13T02:15:50;14.48;;;5.78;;
57828;SDS011;43657;52.698;6.314;2023-07-13T02:18:17;16.52;;;5.47;;
57828;SDS011;43657;52.698;6.314;2023-07-13T02:20:44;12.95;;;5.90;;
57828;SDS011;43657;52.698;6.314;2023-07-13T02:23:13;14.32;;;5.60;;
57828;SDS011;43657;52.698;6.314;2023-07-13T02:25:42;12.77;;;5.57;;
57828;SDS011;43657;52.698;6.314;2023-07-13T02:28:15;12.75;;;5.28;;
57828;SDS011;43657;52.698;6.314;2023-07-13T02:30:41;12.10;;;5.35;;
57828;SDS011;43657;52.698;6.314;2023-07-13T02:33:11;17.27;;;6.10;;
57828;SDS011;43657;52.698;6.314;2023-07-13T02:35:38;15.07;;;5.72;;
57828;SDS011;43657;52.698;6.314;2023-07-13T02:38:04;16.20;;;6.20;;
57828;SDS011;43657;52.698;6.314;2023-07-13T02:40:34;12.52;;;5.38;;
57828;SDS011;43657;52.698;6.314;2023-07-13T02:43:01;18.63;;;6.30;;
57828;SDS011;43657;52.698;6.314;2023-07-13T02:45:28;13.48;;;5.40;;
57828;SDS011;43657;52.698;6.314;2023-07-13T02:47:54;14.00;;;6.05;;
57828;SDS011;43657;52.698;6.314;2023-07-13T02:50:27;12.80;;;5.88;;
57828;SDS011;43657;52.698;6.314;2023-07-13T02:52:56;18.85;;;6.50;;
57828;SDS011;43657;52.698;6.314;2023-07-13T02:55:22;17.15;;;5.70;;
57828;SDS011;43657;52.698;6.314;2023-07-13T02:57:48;16.25;;;5.72;;
57828;SDS011;43657;52.698;6.314;2023-07-13T03:00:14;16.70;;;5.93;;
57828;SDS011;43657;52.698;6.314;2023-07-13T03:02:43;14.15;;;5.90;;
57828;SDS011;43657;52.698;6.314;2023-07-13T03:05:16;18.02;;;6.28;;
57828;SDS011;43657;52.698;6.314;2023-07-13T03:07:45;18.65;;;6.50;;
57828;SDS011;43657;52.698;6.314;2023-07-13T03:10:18;15.00;;;5.75;;
57828;SDS011;43657;52.698;6.314;2023-07-13T03:12:44;13.68;;;6.40;;
57828;SDS011;43657;52.698;6.314;2023-07-13T03:15:13;14.82;;;6.07;;
57828;SDS011;43657;52.698;6.314;2023-07-13T03:17:42;19.38;;;6.85;;
57828;SDS011;43657;52.698;6.314;2023-07-13T03:20:09;15.75;;;6.70;;
57828;SDS011;43657;52.698;6.314;2023-07-13T03:22:39;12.30;;;5.88;;
57828;SDS011;43657;52.698;6.314;2023-07-13T03:25:05;13.98;;;6.13;;
57828;SDS011;43657;52.698;6.314;2023-07-13T03:27:32;13.88;;;6.40;;
57828;SDS011;43657;52.698;6.314;2023-07-13T03:29:59;15.38;;;6.05;;
57828;SDS011;43657;52.698;6.314;2023-07-13T03:32:28;12.10;;;6.00;;
57828;SDS011;43657;52.698;6.314;2023-07-13T03:34:57;13.20;;;6.35;;
57828;SDS011;43657;52.698;6.314;2023-07-13T03:37:22;14.07;;;6.28;;
57828;SDS011;43657;52.698;6.314;2023-07-13T03:39:54;13.50;;;5.90;;
57828;SDS011;43657;52.698;6.314;2023-07-13T03:42:23;14.35;;;6.53;;
57828;SDS011;43657;52.698;6.314;2023-07-13T03:44:48;14.43;;;6.13;;
57828;SDS011;43657;52.698;6.314;2023-07-13T03:47:17;18.92;;;6.28;;
57828;SDS011;43657;52.698;6.314;2023-07-13T03:49:43;16.25;;;6.60;;
57828;SDS011;43657;52.698;6.314;2023-07-13T03:52:08;14.23;;;6.45;;
57828;SDS011;43657;52.698;6.314;2023-07-13T03:54:34;12.85;;;5.90;;
57828;SDS011;43657;52.698;6.314;2023-07-13T03:57:00;17.50;;;6.63;;
57828;SDS011;43657;52.698;6.314;2023-07-13T03:59:25;15.52;;;6.30;;
57828;SDS011;43657;52.698;6.314;2023-07-13T04:01:51;16.63;;;6.05;;
57828;SDS011;43657;52.698;6.314;2023-07-13T04:04:16;11.55;;;5.82;;
57828;SDS011;43657;52.698;6.314;2023-07-13T04:06:42;12.88;;;5.75;;
57828;SDS011;43657;52.698;6.314;2023-07-13T04:09:07;13.55;;;6.22;;
57828;SDS011;43657;52.698;6.314;2023-07-13T04:11:33;14.05;;;6.90;;
57828;SDS011;43657;52.698;6.314;2023-07-13T04:14:01;15.55;;;6.70;;
57828;SDS011;43657;52.698;6.314;2023-07-13T04:16:27;20.15;;;7.63;;
57828;SDS011;43657;52.698;6.314;2023-07-13T04:18:52;15.05;;;6.45;;
57828;SDS011;43657;52.698;6.314;2023-07-13T04:21:20;14.63;;;6.88;;
57828;SDS011;43657;52.698;6.314;2023-07-13T04:23:45;15.85;;;6.57;;
57828;SDS011;43657;52.698;6.314;2023-07-13T04:26:11;15.70;;;7.25;;
57828;SDS011;43657;52.698;6.314;2023-07-13T04:28:37;17.15;;;6.95;;
57828;SDS011;43657;52.698;6.314;2023-07-13T04:31:02;13.88;;;6.20;;
57828;SDS011;43657;52.698;6.314;2023-07-13T04:33:28;14.82;;;6.57;;
57828;SDS011;43657;52.698;6.314;2023-07-13T04:35:54;15.88;;;7.40;;
57828;SDS011;43657;52.698;6.314;2023-07-13T04:38:25;11.90;;;6.90;;
57828;SDS011;43657;52.698;6.314;2023-07-13T04:40:54;14.90;;;6.35;;
57828;SDS011;43657;52.698;6.314;2023-07-13T04:43:21;14.32;;;6.50;;
57828;SDS011;43657;52.698;6.314;2023-07-13T04:45:46;15.18;;;6.28;;
57828;SDS011;43657;52.698;6.314;2023-07-13T04:48:12;12.52;;;6.40;;
57828;SDS011;43657;52.698;6.314;2023-07-13T04:50:38;14.05;;;5.78;;
57828;SDS011;43657;52.698;6.314;2023-07-13T04:53:04;15.02;;;6.32;;
57828;SDS011;43657;52.698;6.314;2023-07-13T04:55:30;14.32;;;5.68;;
57828;SDS011;43657;52.698;6.314;2023-07-13T04:57:56;15.30;;;5.90;;
57828;SDS011;43657;52.698;6.314;2023-07-13T05:00:23;11.48;;;5.03;;
57828;SDS011;43657;52.698;6.314;2023-07-13T05:02:49;13.52;;;4.97;;
57828;SDS011;43657;52.698;6.314;2023-07-13T05:05:16;12.88;;;5.13;;
57828;SDS011;43657;52.698;6.314;2023-07-13T05:07:41;15.05;;;5.45;;
57828;SDS011;43657;52.698;6.314;2023-07-13T05:10:07;11.32;;;4.93;;
57828;SDS011;43657;52.698;6.314;2023-07-13T05:12:33;8.75;;;4.28;;
57828;SDS011;43657;52.698;6.314;2023-07-13T05:14:59;11.85;;;4.72;;
57828;SDS011;43657;52.698;6.314;2023-07-13T05:17:24;9.52;;;3.97;;
57828;SDS011;43657;52.698;6.314;2023-07-13T05:19:50;15.07;;;4.90;;
57828;SDS011;43657;52.698;6.314;2023-07-13T05:22:16;8.20;;;4.05;;
57828;SDS011;43657;52.698;6.314;2023-07-13T05:24:41;10.02;;;4.40;;
57828;SDS011;43657;52.698;6.314;2023-07-13T05:27:07;11.18;;;4.68;;
57828;SDS011;43657;52.698;6.314;2023-07-13T05:29:32;11.02;;;4.35;;
57828;SDS011;43657;52.698;6.314;2023-07-13T05:31:58;10.85;;;4.32;;
57828;SDS011;43657;52.698;6.314;2023-07-13T05:34:23;9.35;;;4.07;;
57828;SDS011;43657;52.698;6.314;2023-07-13T05:36:50;10.05;;;4.20;;
57828;SDS011;43657;52.698;6.314;2023-07-13T05:39:16;10.35;;;3.85;;
57828;SDS011;43657;52.698;6.314;2023-07-13T05:41:42;11.90;;;4.20;;
57828;SDS011;43657;52.698;6.314;2023-07-13T05:44:07;12.15;;;4.68;;
57828;SDS011;43657;52.698;6.314;2023-07-13T05:46:33;10.43;;;3.95;;
57828;SDS011;43657;52.698;6.314;2023-07-13T05:48:59;9.88;;;3.78;;
57828;SDS011;43657;52.698;6.314;2023-07-13T05:51:24;10.05;;;3.90;;
57828;SDS011;43657;52.698;6.314;2023-07-13T05:53:50;11.10;;;3.53;;
57828;SDS011;43657;52.698;6.314;2023-07-13T05:56:16;9.75;;;3.75;;
57828;SDS011;43657;52.698;6.314;2023-07-13T05:58:41;10.93;;;3.42;;
57828;SDS011;43657;52.698;6.314;2023-07-13T06:01:09;10.80;;;3.63;;
57828;SDS011;43657;52.698;6.314;2023-07-13T06:03:36;8.35;;;3.65;;
57828;SDS011;43657;52.698;6.314;2023-07-13T06:06:03;9.32;;;3.75;;
57828;SDS011;43657;52.698;6.314;2023-07-13T06:08:30;12.77;;;3.70;;
57828;SDS011;43657;52.698;6.314;2023-07-13T06:11:04;9.73;;;4.05;;
57828;SDS011;43657;52.698;6.314;2023-07-13T06:13:51;11.15;;;4.05;;
57828;SDS011;43657;52.698;6.314;2023-07-13T06:16:17;7.68;;;3.80;;
57828;SDS011;43657;52.698;6.314;2023-07-13T06:18:43;9.80;;;4.28;;
57828;SDS011;43657;52.698;6.314;2023-07-13T06:21:09;9.27;;;4.22;;
57828;SDS011;43657;52.698;6.314;2023-07-13T06:23:37;10.18;;;4.40;;
57828;SDS011;43657;52.698;6.314;2023-07-13T06:26:04;11.00;;;4.53;;
57828;SDS011;43657;52.698;6.314;2023-07-13T06:28:30;9.57;;;4.05;;
57828;SDS011;43657;52.698;6.314;2023-07-13T06:30:57;9.82;;;4.20;;
57828;SDS011;43657;52.698;6.314;2023-07-13T06:33:23;12.30;;;3.92;;
57828;SDS011;43657;52.698;6.314;2023-07-13T06:35:49;10.60;;;4.30;;
57828;SDS011;43657;52.698;6.314;2023-07-13T06:38:15;10.18;;;4.05;;
57828;SDS011;43657;52.698;6.314;2023-07-13T06:40:41;11.13;;;4.32;;
57828;SDS011;43657;52.698;6.314;2023-07-13T06:43:06;12.55;;;4.85;;
57828;SDS011;43657;52.698;6.314;2023-07-13T06:45:40;9.20;;;4.70;;
57828;SDS011;43657;52.698;6.314;2023-07-13T06:48:18;12.65;;;4.88;;
57828;SDS011;43657;52.698;6.314;2023-07-13T06:50:44;11.45;;;4.80;;
57828;SDS011;43657;52.698;6.314;2023-07-13T06:53:11;12.77;;;4.68;;
57828;SDS011;43657;52.698;6.314;2023-07-13T06:55:37;13.10;;;5.18;;
57828;SDS011;43657;52.698;6.314;2023-07-13T06:58:03;11.02;;;4.57;;
57828;SDS011;43657;52.698;6.314;2023-07-13T07:00:29;10.73;;;4.88;;
57828;SDS011;43657;52.698;6.314;2023-07-13T07:02:54;13.52;;;4.85;;
57828;SDS011;43657;52.698;6.314;2023-07-13T07:05:20;11.88;;;4.55;;
57828;SDS011;43657;52.698;6.314;2023-07-13T07:07:47;11.00;;;4.63;;
57828;SDS011;43657;52.698;6.314;2023-07-13T07:10:14;10.55;;;4.82;;
57828;SDS011;43657;52.698;6.314;2023-07-13T07:12:40;13.35;;;4.90;;
57828;SDS011;43657;52.698;6.314;2023-07-13T07:15:06;10.35;;;4.57;;
57828;SDS011;43657;52.698;6.314;2023-07-13T07:17:32;11.32;;;4.90;;
57828;SDS011;43657;52.698;6.314;2023-07-13T07:19:57;13.65;;;5.50;;
57828;SDS011;43657;52.698;6.314;2023-07-13T07:22:23;12.90;;;5.30;;
57828;SDS011;43657;52.698;6.314;2023-07-13T07:24:52;18.15;;;6.30;;
57828;SDS011;43657;52.698;6.314;2023-07-13T07:27:18;15.95;;;5.65;;
57828;SDS011;43657;52.698;6.314;2023-07-13T07:29:43;14.02;;;6.70;;
57828;SDS011;43657;52.698;6.314;2023-07-13T07:32:09;14.65;;;6.05;;
57828;SDS011;43657;52.698;6.314;2023-07-13T07:34:35;16.58;;;6.40;;
57828;SDS011;43657;52.698;6.314;2023-07-13T07:37:00;13.68;;;5.75;;
57828;SDS011;43657;52.698;6.314;2023-07-13T07:39:26;11.88;;;6.00;;
57828;SDS011;43657;52.698;6.314;2023-07-13T07:41:52;13.20;;;6.30;;
57828;SDS011;43657;52.698;6.314;2023-07-13T07:44:18;16.05;;;7.20;;
57828;SDS011;43657;52.698;6.314;2023-07-13T07:46:44;14.43;;;6.85;;
57828;SDS011;43657;52.698;6.314;2023-07-13T07:49:09;13.48;;;6.88;;
57828;SDS011;43657;52.698;6.314;2023-07-13T07:51:35;16.83;;;6.90;;
57828;SDS011;43657;52.698;6.314;2023-07-13T07:54:01;13.25;;;6.63;;
57828;SDS011;43657;52.698;6.314;2023-07-13T07:56:28;13.68;;;6.70;;
57828;SDS011;43657;52.698;6.314;2023-07-13T07:58:53;13.15;;;6.55;;
57828;SDS011;43657;52.698;6.314;2023-07-13T08:01:19;11.55;;;6.22;;
57828;SDS011;43657;52.698;6.314;2023-07-13T08:03:47;13.35;;;5.80;;
57828;SDS011;43657;52.698;6.314;2023-07-13T08:06:13;12.75;;;5.90;;
57828;SDS011;43657;52.698;6.314;2023-07-13T08:08:39;11.38;;;5.68;;
57828;SDS011;43657;52.698;6.314;2023-07-13T08:11:05;11.55;;;6.47;;
57828;SDS011;43657;52.698;6.314;2023-07-13T08:13:32;9.55;;;5.28;;
57828;SDS011;43657;52.698;6.314;2023-07-13T08:15:58;10.63;;;5.85;;
57828;SDS011;43657;52.698;6.314;2023-07-13T08:18:24;10.57;;;5.72;;
57828;SDS011;43657;52.698;6.314;2023-07-13T08:20:50;12.32;;;5.65;;
57828;SDS011;43657;52.698;6.314;2023-07-13T08:23:16;10.25;;;4.97;;
57828;SDS011;43657;52.698;6.314;2023-07-13T08:25:42;10.52;;;5.18;;
57828;SDS011;43657;52.698;6.314;2023-07-13T08:28:07;11.82;;;5.25;;
57828;SDS011;43657;52.698;6.314;2023-07-13T08:30:33;9.50;;;5.75;;
57828;SDS011;43657;52.698;6.314;2023-07-13T08:32:59;10.70;;;5.75;;
57828;SDS011;43657;52.698;6.314;2023-07-13T08:35:24;10.25;;;5.28;;
57828;SDS011;43657;52.698;6.314;2023-07-13T08:37:51;12.48;;;6.13;;
57828;SDS011;43657;52.698;6.314;2023-07-13T08:40:17;11.50;;;5.47;;
57828;SDS011;43657;52.698;6.314;2023-07-13T08:43:09;11.25;;;6.00;;
57828;SDS011;43657;52.698;6.314;2023-07-13T08:45:44;18.73;;;7.03;;
57828;SDS011;43657;52.698;6.314;2023-07-13T08:50:49;20.35;;;5.10;;
57828;SDS011;43657;52.698;6.314;2023-07-13T08:53:16;19.75;;;4.30;;
57828;SDS011;43657;52.698;6.314;2023-07-13T08:55:42;13.88;;;4.03;;
57828;SDS011;43657;52.698;6.314;2023-07-13T08:58:13;12.77;;;3.97;;
57828;SDS011;43657;52.698;6.314;2023-07-13T09:00:55;87.47;;;12.23;;
57828;SDS011;43657;52.698;6.314;2023-07-13T09:03:35;71.88;;;9.73;;
57828;SDS011;43657;52.698;6.314;2023-07-13T09:06:06;25.98;;;7.07;;
57828;SDS011;43657;52.698;6.314;2023-07-13T09:08:57;18.88;;;5.85;;
57828;SDS011;43657;52.698;6.314;2023-07-13T09:14:41;47.40;;;12.10;;
57828;SDS011;43657;52.698;6.314;2023-07-13T09:17:17;10.13;;;5.25;;
57828;SDS011;43657;52.698;6.314;2023-07-13T09:19:53;48.13;;;9.80;;
57828;SDS011;43657;52.698;6.314;2023-07-13T09:22:29;21.65;;;6.75;;
57828;SDS011;43657;52.698;6.314;2023-07-13T09:27:50;6.35;;;5.30;;
57828;SDS011;43657;52.698;6.314;2023-07-13T09:30:24;12.48;;;5.40;;
57828;SDS011;43657;52.698;6.314;2023-07-13T09:32:58;9.27;;;5.80;;
57828;SDS011;43657;52.698;6.314;2023-07-13T09:35:24;9.48;;;6.97;;
57828;SDS011;43657;52.698;6.314;2023-07-13T09:37:58;5.35;;;4.45;;
57828;SDS011;43657;52.698;6.314;2023-07-13T09:40:35;27.08;;;8.85;;
57828;SDS011;43657;52.698;6.314;2023-07-13T09:43:06;23.55;;;12.25;;
57828;SDS011;43657;52.698;6.314;2023-07-13T09:45:37;8.98;;;7.18;;
57828;SDS011;43657;52.698;6.314;2023-07-13T09:48:04;12.07;;;10.73;;
57828;SDS011;43657;52.698;6.314;2023-07-13T09:50:33;9.85;;;8.95;;
57828;SDS011;43657;52.698;6.314;2023-07-13T09:53:00;14.55;;;13.07;;
57828;SDS011;43657;52.698;6.314;2023-07-13T09:55:30;16.05;;;14.38;;
57828;SDS011;43657;52.698;6.314;2023-07-13T09:58:02;17.03;;;12.30;;
57828;SDS011;43657;52.698;6.314;2023-07-13T10:00:37;9.10;;;8.10;;
57828;SDS011;43657;52.698;6.314;2023-07-13T10:03:17;102.40;;;31.50;;
57828;SDS011;43657;52.698;6.314;2023-07-13T10:05:45;12.75;;;11.52;;
57828;SDS011;43657;52.698;6.314;2023-07-13T10:08:30;9.57;;;8.60;;
57828;SDS011;43657;52.698;6.314;2023-07-13T10:11:01;19.60;;;17.88;;
57828;SDS011;43657;52.698;6.314;2023-07-13T10:13:36;15.30;;;13.90;;
57828;SDS011;43657;52.698;6.314;2023-07-13T10:16:07;11.73;;;10.10;;
57828;SDS011;43657;52.698;6.314;2023-07-13T10:18:38;12.15;;;11.05;;
57828;SDS011;43657;52.698;6.314;2023-07-13T10:24:46;10.07;;;9.10;;
57828;SDS011;43657;52.698;6.314;2023-07-13T10:30:29;12.15;;;10.43;;
57828;SDS011;43657;52.698;6.314;2023-07-13T10:33:11;16.52;;;11.38;;
57828;SDS011;43657;52.698;6.314;2023-07-13T10:38:14;46.70;;;15.50;;
57828;SDS011;43657;52.698;6.314;2023-07-13T10:40:48;19.67;;;13.65;;
57828;SDS011;43657;52.698;6.314;2023-07-13T10:43:33;38.85;;;12.88;;
57828;SDS011;43657;52.698;6.314;2023-07-13T10:46:04;31.50;;;8.15;;
57828;SDS011;43657;52.698;6.314;2023-07-13T10:48:33;15.40;;;5.93;;
57828;SDS011;43657;52.698;6.314;2023-07-13T10:51:01;60.75;;;10.80;;
57828;SDS011;43657;52.698;6.314;2023-07-13T10:53:32;7.05;;;4.78;;
57828;SDS011;43657;52.698;6.314;2023-07-13T10:58:43;5.15;;;3.58;;
57828;SDS011;43657;52.698;6.314;2023-07-13T11:01:13;32.38;;;8.48;;
57828;SDS011;43657;52.698;6.314;2023-07-13T11:06:16;5.10;;;3.47;;
57828;SDS011;43657;52.698;6.314;2023-07-13T11:11:32;5.88;;;4.45;;
57828;SDS011;43657;52.698;6.314;2023-07-13T11:14:00;5.55;;;4.53;;
57828;SDS011;43657;52.698;6.314;2023-07-13T11:16:43;8.40;;;7.60;;
57828;SDS011;43657;52.698;6.314;2023-07-13T11:24:29;4.57;;;4.05;;
57828;SDS011;43657;52.698;6.314;2023-07-13T11:35:44;7.00;;;5.18;;
57828;SDS011;43657;52.698;6.314;2023-07-13T11:38:43;6.38;;;4.45;;
57828;SDS011;43657;52.698;6.314;2023-07-13T11:41:14;8.38;;;5.88;;
57828;SDS011;43657;52.698;6.314;2023-07-13T11:43:48;7.05;;;4.72;;
57828;SDS011;43657;52.698;6.314;2023-07-13T11:46:25;7.22;;;5.35;;
57828;SDS011;43657;52.698;6.314;2023-07-13T11:48:52;7.20;;;5.15;;
57828;SDS011;43657;52.698;6.314;2023-07-13T11:51:19;8.23;;;4.30;;
57828;SDS011;43657;52.698;6.314;2023-07-13T11:53:48;7.57;;;4.88;;
57828;SDS011;43657;52.698;6.314;2023-07-13T11:56:15;5.28;;;2.90;;
57828;SDS011;43657;52.698;6.314;2023-07-13T11:58:42;5.55;;;2.92;;
57828;SDS011;43657;52.698;6.314;2023-07-13T12:01:15;6.25;;;3.00;;
57828;SDS011;43657;52.698;6.314;2023-07-13T12:03:50;6.07;;;2.77;;
57828;SDS011;43657;52.698;6.314;2023-07-13T12:06:30;7.32;;;2.97;;
57828;SDS011;43657;52.698;6.314;2023-07-13T12:09:01;7.18;;;2.60;;
57828;SDS011;43657;52.698;6.314;2023-07-13T12:11:37;6.38;;;2.65;;
57828;SDS011;43657;52.698;6.314;2023-07-13T12:14:04;6.13;;;2.60;;
57828;SDS011;43657;52.698;6.314;2023-07-13T12:16:31;4.60;;;2.28;;
57828;SDS011;43657;52.698;6.314;2023-07-13T12:18:58;4.60;;;2.58;;
57828;SDS011;43657;52.698;6.314;2023-07-13T12:21:33;5.32;;;2.13;;
57828;SDS011;43657;52.698;6.314;2023-07-13T12:24:04;6.03;;;2.45;;
57828;SDS011;43657;52.698;6.314;2023-07-13T12:26:38;5.65;;;2.35;;
57828;SDS011;43657;52.698;6.314;2023-07-13T12:29:05;5.82;;;2.00;;
57828;SDS011;43657;52.698;6.314;2023-07-13T12:31:33;5.97;;;1.65;;
57828;SDS011;43657;52.698;6.314;2023-07-13T12:34:11;5.30;;;2.10;;
57828;SDS011;43657;52.698;6.314;2023-07-13T12:36:37;4.97;;;1.80;;
57828;SDS011;43657;52.698;6.314;2023-07-13T12:41:45;3.55;;;1.73;;
57828;SDS011;43657;52.698;6.314;2023-07-13T12:44:12;4.75;;;1.55;;
57828;SDS011;43657;52.698;6.314;2023-07-13T12:46:50;3.95;;;1.85;;
57828;SDS011;43657;52.698;6.314;2023-07-13T12:49:18;4.30;;;1.85;;
57828;SDS011;43657;52.698;6.314;2023-07-13T12:51:55;4.68;;;1.60;;
57828;SDS011;43657;52.698;6.314;2023-07-13T12:54:24;4.90;;;1.90;;
57828;SDS011;43657;52.698;6.314;2023-07-13T12:56:50;4.35;;;1.60;;
57828;SDS011;43657;52.698;6.314;2023-07-13T12:59:19;4.13;;;1.60;;
57828;SDS011;43657;52.698;6.314;2023-07-13T13:01:46;4.70;;;1.85;;
57828;SDS011;43657;52.698;6.314;2023-07-13T13:04:14;5.30;;;2.10;;
57828;SDS011;43657;52.698;6.314;2023-07-13T13:06:41;6.70;;;1.70;;
57828;SDS011;43657;52.698;6.314;2023-07-13T13:09:14;4.80;;;1.80;;
57828;SDS011;43657;52.698;6.314;2023-07-13T13:14:07;4.28;;;1.67;;
57828;SDS011;43657;52.698;6.314;2023-07-13T13:16:44;5.55;;;1.60;;
57828;SDS011;43657;52.698;6.314;2023-07-13T13:19:16;4.13;;;1.70;;
57828;SDS011;43657;52.698;6.314;2023-07-13T13:21:44;4.40;;;1.70;;
57828;SDS011;43657;52.698;6.314;2023-07-13T13:24:11;6.65;;;1.90;;
57828;SDS011;43657;52.698;6.314;2023-07-13T13:26:38;4.97;;;1.60;;
57828;SDS011;43657;52.698;6.314;2023-07-13T13:29:38;4.47;;;1.73;;
57828;SDS011;43657;52.698;6.314;2023-07-13T13:31:57;4.07;;;1.77;;
57828;SDS011;43657;52.698;6.314;2023-07-13T13:34:23;5.15;;;1.52;;
57828;SDS011;43657;52.698;6.314;2023-07-13T13:36:50;5.93;;;1.80;;
57828;SDS011;43657;52.698;6.314;2023-07-13T13:39:21;3.85;;;1.65;;
57828;SDS011;43657;52.698;6.314;2023-07-13T13:41:53;3.65;;;1.70;;
57828;SDS011;43657;52.698;6.314;2023-07-13T13:44:19;4.07;;;1.60;;
57828;SDS011;43657;52.698;6.314;2023-07-13T13:46:46;4.10;;;1.73;;
57828;SDS011;43657;52.698;6.314;2023-07-13T13:49:16;5.90;;;1.80;;
57828;SDS011;43657;52.698;6.314;2023-07-13T13:51:43;3.63;;;1.65;;
57828;SDS011;43657;52.698;6.314;2023-07-13T13:54:13;5.70;;;2.10;;
57828;SDS011;43657;52.698;6.314;2023-07-13T13:56:44;3.72;;;1.98;;
57828;SDS011;43657;52.698;6.314;2023-07-13T13:59:14;4.10;;;1.70;;
57828;SDS011;43657;52.698;6.314;2023-07-13T14:01:47;4.07;;;1.85;;
57828;SDS011;43657;52.698;6.314;2023-07-13T14:05:03;4.82;;;2.22;;
57828;SDS011;43657;52.698;6.314;2023-07-13T14:07:51;5.43;;;1.95;;
57828;SDS011;43657;52.698;6.314;2023-07-13T14:13:10;4.78;;;2.08;;
57828;SDS011;43657;52.698;6.314;2023-07-13T14:15:54;5.43;;;2.00;;
57828;SDS011;43657;52.698;6.314;2023-07-13T14:18:23;5.88;;;2.28;;
57828;SDS011;43657;52.698;6.314;2023-07-13T14:21:01;5.10;;;2.40;;
57828;SDS011;43657;52.698;6.314;2023-07-13T14:23:52;6.75;;;2.10;;
57828;SDS011;43657;52.698;6.314;2023-07-13T14:26:27;5.50;;;1.80;;
57828;SDS011;43657;52.698;6.314;2023-07-13T14:28:59;4.57;;;2.20;;
57828;SDS011;43657;52.698;6.314;2023-07-13T14:31:25;4.88;;;2.25;;
57828;SDS011;43657;52.698;6.314;2023-07-13T14:33:54;5.28;;;1.98;;
57828;SDS011;43657;52.698;6.314;2023-07-13T14:36:47;5.35;;;2.00;;
57828;SDS011;43657;52.698;6.314;2023-07-13T14:39:24;4.63;;;2.20;;
57828;SDS011;43657;52.698;6.314;2023-07-13T14:42:09;5.03;;;2.10;;
57828;SDS011;43657;52.698;6.314;2023-07-13T14:44:49;5.55;;;2.67;;
57828;SDS011;43657;52.698;6.314;2023-07-13T14:47:37;5.28;;;2.35;;
57828;SDS011;43657;52.698;6.314;2023-07-13T14:50:32;4.97;;;1.73;;
57828;SDS011;43657;52.698;6.314;2023-07-13T14:53:00;4.38;;;1.80;;
57828;SDS011;43657;52.698;6.314;2023-07-13T14:55:34;6.43;;;2.55;;
57828;SDS011;43657;52.698;6.314;2023-07-13T14:58:03;6.90;;;2.38;;
57828;SDS011;43657;52.698;6.314;2023-07-13T15:00:47;5.32;;;2.47;;
57828;SDS011;43657;52.698;6.314;2023-07-13T15:03:21;4.88;;;2.38;;
57828;SDS011;43657;52.698;6.314;2023-07-13T15:05:57;3.65;;;2.08;;
57828;SDS011;43657;52.698;6.314;2023-07-13T15:08:23;4.65;;;2.13;;
57828;SDS011;43657;52.698;6.314;2023-07-13T15:11:07;4.60;;;1.92;;
57828;SDS011;43657;52.698;6.314;2023-07-13T15:13:42;4.25;;;1.95;;
57828;SDS011;43657;52.698;6.314;2023-07-13T15:16:33;3.45;;;1.90;;
57828;SDS011;43657;52.698;6.314;2023-07-13T15:19:05;6.47;;;2.58;;
57828;SDS011;43657;52.698;6.314;2023-07-13T15:21:39;4.28;;;2.33;;
57828;SDS011;43657;52.698;6.314;2023-07-13T15:24:25;4.70;;;2.28;;
57828;SDS011;43657;52.698;6.314;2023-07-13T15:26:53;6.07;;;2.35;;
57828;SDS011;43657;52.698;6.314;2023-07-13T15:29:19;5.60;;;2.10;;
57828;SDS011;43657;52.698;6.314;2023-07-13T15:31:53;6.00;;;2.60;;
57828;SDS011;43657;52.698;6.314;2023-07-13T15:34:20;5.65;;;2.38;;
57828;SDS011;43657;52.698;6.314;2023-07-13T15:36:58;4.95;;;2.63;;
57828;SDS011;43657;52.698;6.314;2023-07-13T15:39:28;5.32;;;2.55;;
57828;SDS011;43657;52.698;6.314;2023-07-13T15:42:07;5.82;;;2.38;;
57828;SDS011;43657;52.698;6.314;2023-07-13T15:45:18;6.15;;;2.40;;